Time;durP1;ratioP1;P1;durP2;ratioP2;P2;SDS_P1;SDS_P2;PMS_P1;PMS_P2;Temp;Humidity;BMP_temperature;BMP_pressure;BME280_temperature;BME280_humidity;BME280_pressure;Samples;Min_cycle;Max_cycle;Signal;HPM_P1;HPM_P2
2022/07/02 00:00:42;;;;;;;5.25;4.72;;;;;;;12.99;99.53;68219.66;5067352;28;20044;-75
2022/07/02 00:03:10;;;;;;;8.23;4.85;;;;;;;12.96;99.56;68213.03;5068233;28;20067;-75
2022/07/02 00:05:40;;;;;;;7.55;5.45;;;;;;;12.88;99.84;68205.06;5068224;28;20044;-75
2022/07/02 00:08:07;;;;;;;6.07;5.47;;;;;;;;;;5067391;28;20044;-75
2022/07/02 00:10:33;;;;;;;5.13;4.63;;;;;;;;;;5066745;28;20119;-75
2022/07/02 00:13:00;;;;;;;5.85;4.82;;;;;;;12.79;100.00;68197.50;5067834;28;20166;-75
2022/07/02 00:15:25;;;;;;;6.90;5.30;;;;;;;12.78;99.68;68196.38;5067315;28;20130;-75
2022/07/02 00:17:51;;;;;;;7.85;5.70;;;;;;;12.72;99.81;68189.56;5068938;28;20086;-76
2022/07/02 00:20:16;;;;;;;7.43;5.38;;;;;;;12.74;99.80;68189.13;5067097;28;20036;-76
2022/07/02 00:22:43;;;;;;;6.75;4.47;;;;;;;12.71;99.27;68191.06;5063075;28;20715;-76
2022/07/02 00:25:09;;;;;;;8.27;5.32;;;;;;;;;;5049111;28;20041;-77
2022/07/02 00:27:40;;;;;;;6.85;5.22;;;;;;;12.70;99.99;68189.38;5064100;28;20125;-77
2022/07/02 00:30:05;;;;;;;7.85;5.50;;;;;;;12.66;100.00;68180.06;5052854;28;20033;-77
2022/07/02 00:32:33;;;;;;;6.68;4.80;;;;;;;12.63;99.89;68176.66;5065215;28;20071;-76
2022/07/02 00:35:03;;;;;;;6.70;5.28;;;;;;;;;;5070863;28;20878;-78
2022/07/02 00:37:28;;;;;;;8.10;6.00;;;;;;;12.60;100.00;68175.91;5069891;28;20045;-76
2022/07/02 00:39:55;;;;;;;6.78;5.43;;;;;;;12.61;100.00;68174.38;5069295;28;20045;-77
2022/07/02 00:42:21;;;;;;;6.70;5.55;;;;;;;;;;5066322;28;20041;-77
2022/07/02 00:44:47;;;;;;;6.47;5.25;;;;;;;12.53;100.00;68165.28;5070546;28;20096;-75
2022/07/02 00:47:14;;;;;;;8.00;6.00;;;;;;;12.50;100.00;68161.88;5068250;28;20052;-78
2022/07/02 00:49:39;;;;;;;5.65;4.97;;;;;;;12.47;99.43;68158.47;5068867;28;20052;-77
2022/07/02 00:52:06;;;;;;;8.02;5.38;;;;;;;12.46;99.56;68157.31;5068864;28;20033;-75
2022/07/02 00:54:32;;;;;;;8.80;6.07;;;;;;;12.42;100.00;68153.34;5068374;28;20119;-77
2022/07/02 00:56:58;;;;;;;9.23;5.88;;;;;;;12.40;100.00;68151.09;5068506;28;20683;-75
2022/07/02 00:59:24;;;;;;;12.85;6.70;;;;;;;12.40;100.00;68151.66;5082273;28;20046;-78
2022/07/02 01:01:51;;;;;;;6.70;5.45;;;;;;;12.33;100.00;68138.34;5067573;28;20066;-77
2022/07/02 01:04:17;;;;;;;7.13;6.32;;;;;;;12.32;100.00;68147.31;5068106;28;20518;-76
2022/07/02 01:06:43;;;;;;;7.03;5.95;;;;;;;12.29;100.00;68141.81;5069308;28;20120;-78
2022/07/02 01:11:57;;;;;;;;;;;;;;;;;;5059664;28;20051;-76
2022/07/02 01:14:24;;;;;;;6.82;6.20;;;;;;;12.18;100.00;68129.31;5067075;28;19916;-76
2022/07/02 01:16:49;;;;;;;7.63;6.40;;;;;;;12.21;100.00;68129.47;5074993;28;20054;-78
2022/07/02 01:19:17;;;;;;;8.70;6.60;;;;;;;12.19;100.00;68123.00;5090034;28;20036;-78
2022/07/02 01:22:21;;;;;;;6.83;6.20;;;;;;;12.20;100.00;68128.91;5069342;28;20044;-76
2022/07/02 01:24:49;;;;;;;7.10;6.40;;;;;;;12.21;100.00;68130.06;5045923;28;20041;-77
2022/07/02 01:27:15;;;;;;;11.00;5.93;;;;;;;;;;5055359;28;20032;-77
2022/07/02 01:29:40;;;;;;;8.73;7.50;;;;;;;12.27;100.00;68136.88;5067778;28;20044;-78
2022/07/02 01:32:07;;;;;;;9.30;7.00;;;;;;;12.33;100.00;68143.69;5091363;23;20056;-83
2022/07/02 01:34:44;;;;;;;8.20;6.97;;;;;;;12.32;100.00;68141.97;5070593;28;20143;-81
2022/07/02 01:37:11;;;;;;;9.20;7.40;;;;;;;;;;5071090;28;20115;-83
2022/07/02 01:39:37;;;;;;;10.65;7.18;;;;;;;;;;5068646;28;20044;-82
2022/07/02 01:42:03;;;;;;;11.57;7.72;;;;;;;12.40;99.94;68146.31;5071329;28;20040;-82
2022/07/02 01:44:29;;;;;;;9.10;7.40;;;;;;;12.47;99.48;68159.03;5066448;28;20225;-82
2022/07/02 01:46:55;;;;;;;12.40;7.68;;;;;;;12.47;99.30;68163.81;5059109;28;20060;-82
2022/07/02 01:49:20;;;;;;;10.10;7.18;;;;;;;12.50;99.18;68161.88;5046014;28;20390;-82
2022/07/02 01:51:45;;;;;;;8.95;7.70;;;;;;;12.51;98.87;68163.56;5048979;28;20570;-83
2022/07/02 01:54:11;;;;;;;8.23;7.35;;;;;;;12.47;98.90;68159.03;5062414;28;20063;-82
2022/07/02 01:56:37;;;;;;;8.88;7.75;;;;;;;12.54;98.43;68166.41;5065512;28;20044;-82
2022/07/02 01:59:03;;;;;;;9.75;8.10;;;;;;;12.52;98.45;68167.38;5062324;28;20429;-82
2022/07/02 02:01:28;;;;;;;9.25;7.57;;;;;;;12.56;98.45;68171.34;5066205;28;20031;-83
2022/07/02 02:03:54;;;;;;;10.07;7.57;;;;;;;12.59;98.35;68175.34;5069986;28;20036;-83
2022/07/02 02:06:19;;;;;;;9.40;7.90;;;;;;;;;;5068134;28;20131;-83
2022/07/02 02:08:44;;;;;;;8.60;7.70;;;;;;;12.66;97.60;68182.72;5071216;28;20043;-79
2022/07/02 02:11:10;;;;;;;8.82;7.95;;;;;;;12.69;97.57;68183.47;5063598;28;20041;-82
2022/07/02 02:13:36;;;;;;;8.52;7.70;;;;;;;12.70;97.08;68179.25;5051705;28;20131;-82
2022/07/02 02:16:01;;;;;;;10.25;8.10;;;;;;;12.71;97.05;68185.72;5065147;28;20037;-84
2022/07/02 02:18:27;;;;;;;11.27;8.07;;;;;;;12.69;97.43;68185.56;5068100;28;20677;-82
2022/07/02 02:20:52;;;;;;;9.95;7.75;;;;;;;12.69;97.47;68183.47;5086030;28;20131;-82
2022/07/02 02:23:17;;;;;;;9.63;7.95;;;;;;;;;;5055203;28;20044;-83
2022/07/02 02:25:42;;;;;;;9.20;8.25;;;;;;;12.65;97.45;68174.13;5061444;28;20041;-82
2022/07/02 02:28:08;;;;;;;12.05;8.82;;;;;;;12.63;97.87;68179.31;5062232;28;20041;-82
2022/07/02 02:30:33;;;;;;;12.30;8.10;;;;;;;12.61;97.80;68174.38;5060553;28;20057;-81
2022/07/02 02:32:59;;;;;;;9.68;8.68;;;;;;;12.64;97.10;68178.34;5071066;28;20041;-83
2022/07/02 02:35:24;;;;;;;9.70;8.07;;;;;;;12.61;97.10;68174.38;5067973;28;20101;-83
2022/07/02 02:37:50;;;;;;;9.85;8.32;;;;;;;12.63;97.02;68176.66;5069091;28;20036;-83
2022/07/02 02:40:15;;;;;;;9.25;8.35;;;;;;;12.63;97.50;68182.00;5068260;28;20111;-83
2022/07/02 02:42:40;;;;;;;10.43;8.55;;;;;;;12.60;97.44;68176.47;5070618;28;20045;-82
2022/07/02 02:45:06;;;;;;;12.18;9.52;;;;;;;;;;5069366;28;20068;-83
2022/07/02 02:47:31;;;;;;;10.27;8.32;;;;;;;12.56;97.05;68163.91;5073796;28;20043;-83
2022/07/02 02:49:57;;;;;;;10.85;8.73;;;;;;;12.54;97.09;68169.06;5069095;28;20516;-82
2022/07/02 02:52:22;;;;;;;12.95;8.68;;;;;;;;;;5072572;28;20035;-81
2022/07/02 02:54:47;;;;;;;11.25;9.60;;;;;;;12.42;98.20;68153.91;5072240;28;20620;-82
2022/07/02 02:57:13;;;;;;;10.48;8.95;;;;;;;12.37;98.08;68150.31;5060999;28;20044;-82
2022/07/02 02:59:39;;;;;;;12.18;9.27;;;;;;;;;;5054246;28;20618;-83
2022/07/02 03:02:04;;;;;;;10.48;9.35;;;;;;;;;;5071578;28;20044;-81
2022/07/02 03:04:29;;;;;;;13.50;8.90;;;;;;;12.37;98.06;68150.91;5071730;28;20040;-83
2022/07/02 03:06:55;;;;;;;12.20;9.57;;;;;;;12.35;97.61;68148.06;5069613;28;20040;-81
2022/07/02 03:09:20;;;;;;;12.23;9.20;;;;;;;12.39;97.89;68150.50;5054572;28;20198;-81
2022/07/02 03:11:46;;;;;;;11.35;9.27;;;;;;;12.38;98.16;68149.38;5068065;28;20493;-83
2022/07/02 03:14:11;;;;;;;12.40;9.93;;;;;;;;;;5069922;28;20492;-82
2022/07/02 03:16:36;;;;;;;11.90;9.98;;;;;;;12.39;98.42;68150.50;5069632;28;20052;-81
2022/07/02 03:19:02;;;;;;;10.63;9.52;;;;;;;12.47;98.25;68164.38;5070041;28;20037;-83
2022/07/02 03:21:28;;;;;;;13.07;9.43;;;;;;;12.46;98.05;68163.25;5069305;28;20084;-82
2022/07/02 03:23:53;;;;;;;14.55;10.00;;;;;;;12.58;97.83;68170.97;5087448;28;20727;-83
2022/07/02 03:26:18;;;;;;;11.05;9.30;;;;;;;12.57;97.73;68172.50;5069947;28;20571;-82
2022/07/02 03:28:44;;;;;;;10.93;9.82;;;;;;;12.56;97.68;68171.34;5068675;28;20094;-83
2022/07/02 03:31:09;;;;;;;11.35;10.18;;;;;;;12.59;97.56;68175.34;5068295;28;20032;-82
2022/07/02 03:33:34;;;;;;;13.10;10.02;;;;;;;12.56;97.43;68163.91;5071811;28;20048;-81
2022/07/02 03:36:00;;;;;;;12.55;10.90;;;;;;;12.54;97.81;68169.06;5073514;28;20036;-82
2022/07/02 03:38:25;;;;;;;14.43;10.60;;;;;;;;;;5068268;28;20246;-82
2022/07/02 03:40:51;;;;;;;15.15;11.45;;;;;;;12.53;98.02;68165.28;5064538;28;20040;-81
2022/07/02 03:43:16;;;;;;;14.73;11.13;;;;;;;12.50;98.40;68164.53;5068691;28;20063;-82
2022/07/02 03:45:41;;;;;;;14.25;10.90;;;;;;;12.56;98.43;68169.25;5065284;28;20071;-81
2022/07/02 03:48:07;;;;;;;14.40;10.90;;;;;;;;;;5066703;28;20553;-82
2022/07/02 03:50:32;;;;;;;13.05;10.38;;;;;;;;;;5064599;28;20037;-81
2022/07/02 03:52:57;;;;;;;14.60;10.68;;;;;;;12.61;97.87;68177.03;5061149;28;20048;-82
2022/07/02 03:55:23;;;;;;;11.75;10.55;;;;;;;;;;5068566;28;20044;-82
2022/07/02 03:57:48;;;;;;;14.45;11.00;;;;;;;12.63;98.19;68176.66;5085554;28;20044;-81
2022/07/02 04:00:13;;;;;;;14.30;10.23;;;;;;;;;;5068679;28;20044;-82
2022/07/02 04:02:39;;;;;;;14.02;10.65;;;;;;;;;;5066449;28;20062;-82
2022/07/02 04:05:05;;;;;;;14.20;10.65;;;;;;;12.64;98.07;68177.78;5066242;28;20521;-82
2022/07/02 04:07:30;;;;;;;14.45;10.77;;;;;;;12.71;98.06;68185.72;5066580;28;20078;-82
2022/07/02 04:09:56;;;;;;;11.88;10.25;;;;;;;12.74;98.17;68191.81;5071038;28;20048;-82
2022/07/02 04:12:21;;;;;;;12.85;10.50;;;;;;;12.77;97.38;68192.56;5072961;28;20076;-82
2022/07/02 04:14:46;;;;;;;15.63;9.35;;;;;;;12.77;97.31;68197.31;5073655;28;20104;-80
2022/07/02 04:17:12;;;;;;;13.15;10.63;;;;;;;12.77;97.70;68194.66;5071536;28;20040;-82
2022/07/02 04:19:37;;;;;;;13.80;10.27;;;;;;;12.82;97.97;68198.25;5064958;28;20053;-81
2022/07/02 04:22:03;;;;;;;13.18;10.18;;;;;;;12.83;97.83;68201.47;5070472;28;20550;-82
2022/07/02 04:24:31;;;;;;;12.75;10.45;;;;;;;12.91;98.31;68207.91;5070642;28;20043;-81
2022/07/02 04:26:57;;;;;;;13.95;10.93;;;;;;;13.00;97.52;68212.22;5058791;28;20037;-83
2022/07/02 04:29:22;;;;;;;13.18;9.73;;;;;;;;;;5058241;28;20051;-81
2022/07/02 04:31:48;;;;;;;13.07;9.50;;;;;;;13.10;96.67;68231.63;5070801;28;20055;-81
2022/07/02 04:34:14;;;;;;;12.90;10.35;;;;;;;13.12;96.98;68231.22;5070378;28;20040;-81
2022/07/02 04:36:39;;;;;;;13.38;10.10;;;;;;;;;;5072540;28;20124;-80
2022/07/02 04:39:05;;;;;;;17.00;9.88;;;;;;;13.21;97.00;68241.47;5069318;28;20040;-81
2022/07/02 04:41:31;;;;;;;13.43;10.55;;;;;;;;;;5069927;28;20049;-81
2022/07/02 04:43:56;;;;;;;12.85;9.98;;;;;;;13.29;96.53;68250.59;5071391;28;20047;-82
2022/07/02 04:46:22;;;;;;;12.23;9.85;;;;;;;;;;5065967;28;20049;-82
2022/07/02 04:48:47;;;;;;;13.48;9.88;;;;;;;;;;5064286;28;20063;-81
2022/07/02 04:51:12;;;;;;;13.93;9.80;;;;;;;13.56;95.58;68274.25;5065486;28;20488;-82
2022/07/02 04:53:37;;;;;;;12.85;9.65;;;;;;;;;;5051463;28;20272;-81
2022/07/02 04:56:03;;;;;;;11.50;9.65;;;;;;;;;;5070509;28;20044;-83
2022/07/02 04:58:28;;;;;;;11.90;10.13;;;;;;;13.80;94.84;68306.31;5085463;28;20044;-82
2022/07/02 05:00:53;;;;;;;13.15;9.82;;;;;;;13.85;94.07;68314.69;5062417;28;20097;-81
2022/07/02 05:03:19;;;;;;;14.13;9.57;;;;;;;13.93;93.56;68321.13;5071180;28;20040;-82
2022/07/02 05:05:44;;;;;;;12.75;9.82;;;;;;;14.02;93.70;68334.03;5064535;28;20166;-82
2022/07/02 05:08:10;;;;;;;15.32;9.30;;;;;;;14.11;93.03;68336.22;5072291;28;20093;-82
2022/07/02 05:10:35;;;;;;;12.63;8.70;;;;;;;14.22;92.39;68353.53;5069916;28;20056;-83
2022/07/02 05:13:01;;;;;;;15.13;9.77;;;;;;;14.28;92.45;68362.47;5070181;28;20040;-81
2022/07/02 05:15:26;;;;;;;11.40;8.43;;;;;;;14.35;91.82;68367.75;5070071;28;20035;-83
2022/07/02 05:17:51;;;;;;;14.98;8.75;;;;;;;;;;5068046;28;20622;-82
2022/07/02 05:20:16;;;;;;;12.63;8.32;;;;;;;14.49;91.62;68383.69;5070596;28;20035;-82
2022/07/02 05:22:42;;;;;;;12.98;8.80;;;;;;;;;;5071338;28;20037;-82
2022/07/02 05:25:07;;;;;;;12.23;8.38;;;;;;;14.62;90.24;68401.22;5071118;28;20060;-81
2022/07/02 05:27:32;;;;;;;9.80;8.65;;;;;;;14.72;90.95;68409.34;5070889;28;20036;-82
2022/07/02 05:29:58;;;;;;;13.10;8.70;;;;;;;;;;5069882;28;20052;-83
2022/07/02 05:32:23;;;;;;;10.60;7.20;;;;;;;;;;5070078;28;20632;-83
2022/07/02 05:34:48;;;;;;;8.85;7.80;;;;;;;14.99;88.44;68442.22;5070803;28;20051;-83
2022/07/02 05:37:14;;;;;;;11.20;7.80;;;;;;;;;;5070034;28;20064;-82
2022/07/02 05:39:39;;;;;;;9.43;7.55;;;;;;;15.22;88.18;68465.16;5069259;28;20127;-82
2022/07/02 05:42:05;;;;;;;11.05;6.72;;;;;;;15.35;87.70;68479.94;5071157;28;20413;-82
2022/07/02 05:44:30;;;;;;;9.45;6.70;;;;;;;15.43;87.07;68488.50;5069833;28;20059;-82
2022/07/02 05:46:56;;;;;;;9.40;6.22;;;;;;;15.50;85.70;68496.47;5072292;28;20051;-82
2022/07/02 05:49:21;;;;;;;8.05;5.60;;;;;;;;;;5068516;28;20044;-82
2022/07/02 05:51:46;;;;;;;7.60;5.25;;;;;;;15.72;84.82;68521.00;5067124;28;20058;-82
2022/07/02 05:54:12;;;;;;;7.97;4.55;;;;;;;15.78;83.39;68527.25;5069505;28;20043;-82
2022/07/02 05:56:37;;;;;;;9.68;4.97;;;;;;;;;;5064552;28;20094;-81
2022/07/02 05:59:02;;;;;;;9.73;4.85;;;;;;;15.93;82.78;68544.34;5067027;28;20044;-82
2022/07/02 06:01:28;;;;;;;6.85;3.78;;;;;;;15.98;81.90;68544.69;5064632;28;20177;-82
2022/07/02 06:03:53;;;;;;;7.22;3.97;;;;;;;16.08;81.63;68560.88;5069992;28;20037;-82
2022/07/02 06:09:03;;;;;;;6.53;4.18;;;;;;;16.21;80.95;68575.13;5052192;28;20044;-83
2022/07/02 06:11:29;;;;;;;9.30;3.80;;;;;;;16.29;80.00;68586.38;5051354;28;20041;-84
2022/07/02 06:13:54;;;;;;;7.15;3.95;;;;;;;;;;5057999;28;20052;-83
2022/07/02 06:16:20;;;;;;;7.68;4.18;;;;;;;;;;5059847;28;20104;-84
2022/07/02 06:18:45;;;;;;;10.70;4.13;;;;;;;16.52;80.44;68612.59;5067350;28;20573;-84
2022/07/02 06:21:10;;;;;;;5.47;3.50;;;;;;;16.63;78.82;68614.41;5069609;28;20090;-84
2022/07/02 06:23:36;;;;;;;9.73;3.85;;;;;;;16.75;79.41;68635.56;5069310;28;20060;-83
2022/07/02 06:26:01;;;;;;;8.43;3.78;;;;;;;16.78;78.30;68639.00;5072279;28;20056;-82
2022/07/02 06:28:27;;;;;;;5.70;3.33;;;;;;;;;;5072434;28;20052;-83
2022/07/02 06:30:52;;;;;;;6.53;3.42;;;;;;;17.02;78.36;68665.25;5071107;28;20053;-83
2022/07/02 06:33:17;;;;;;;7.72;3.10;;;;;;;17.08;77.48;68666.69;5064191;28;20053;-83
2022/07/02 06:35:43;;;;;;;7.95;3.25;;;;;;;;;;5056986;28;20029;-83
2022/07/02 06:38:08;;;;;;;7.10;2.78;;;;;;;;;;5055766;28;20727;-84
2022/07/02 06:40:34;;;;;;;7.45;2.92;;;;;;;17.21;75.25;68681.53;5051281;28;20052;-83
2022/07/02 06:42:59;;;;;;;5.63;2.58;;;;;;;;;;5068025;28;20283;-83
2022/07/02 06:45:24;;;;;;;5.47;3.00;;;;;;;17.47;74.95;68710.63;5068130;28;20051;-82
2022/07/02 06:47:50;;;;;;;8.07;2.85;;;;;;;17.53;74.59;68716.91;5070678;28;20600;-83
2022/07/02 06:50:18;;;;;;;5.00;2.20;;;;;;;;;;5072067;28;20060;-83
2022/07/02 06:52:45;;;;;;;7.37;2.53;;;;;;;;;;5062447;28;20044;-84
2022/07/02 06:55:11;;;;;;;2.88;1.95;;;;;;;17.73;71.69;68739.72;5070063;28;20048;-83
2022/07/02 06:57:36;;;;;;;7.88;2.38;;;;;;;17.77;71.74;68741.59;5055401;28;20118;-83
2022/07/02 07:00:03;;;;;;;4.32;2.05;;;;;;;17.81;71.00;68748.88;5063684;28;20029;-83
2022/07/02 07:02:29;;;;;;;6.45;2.10;;;;;;;17.89;71.40;68756.84;5072647;28;20044;-84
2022/07/02 07:04:55;;;;;;;4.40;1.90;;;;;;;17.93;70.10;68766.81;5065270;28;20032;-83
2022/07/02 07:07:26;;;;;;;3.47;1.90;;;;;;;;;;5070247;28;20108;-83
2022/07/02 07:09:51;;;;;;;4.38;1.67;;;;;;;;;;5069504;28;20135;-83
2022/07/02 07:12:17;;;;;;;7.55;2.00;;;;;;;18.29;69.11;68806.75;5071507;28;20104;-83
2022/07/02 07:14:42;;;;;;;4.50;1.70;;;;;;;18.30;68.13;68802.50;5069622;28;20047;-83
2022/07/02 07:17:08;;;;;;;4.45;1.40;;;;;;;18.27;67.57;68805.63;5069599;28;20044;-83
2022/07/02 07:19:33;;;;;;;5.68;1.60;;;;;;;;;;5066894;28;20086;-83
2022/07/02 07:21:59;;;;;;;4.18;1.73;;;;;;;18.42;67.16;68816.78;5069432;28;20032;-83
2022/07/02 07:24:24;;;;;;;3.45;1.38;;;;;;;;;;5084620;28;20085;-84
2022/07/02 07:26:49;;;;;;;5.32;1.63;;;;;;;;;;5071445;28;20141;-83
2022/07/02 07:29:14;;;;;;;4.38;1.27;;;;;;;;;;5070188;28;20131;-83
2022/07/02 07:31:41;;;;;;;6.78;1.60;;;;;;;;;;5067645;28;20692;-83
2022/07/02 07:34:07;;;;;;;5.43;1.45;;;;;;;18.61;64.84;68834.66;5066013;28;20048;-83
2022/07/02 07:36:33;;;;;;;4.50;1.40;;;;;;;18.69;65.80;68851.88;5063307;28;20405;-83
2022/07/02 07:38:59;;;;;;;4.50;1.73;;;;;;;18.77;65.24;68855.06;5064218;28;20045;-83
2022/07/02 07:41:25;;;;;;;4.30;1.20;;;;;;;18.85;64.60;68864.78;5065933;28;20149;-83
2022/07/02 07:43:53;;;;;;;6.32;1.40;;;;;;;18.98;64.96;68875.78;5063355;28;20356;-84
2022/07/02 07:46:20;;;;;;;3.80;1.33;;;;;;;;;;5058162;28;20408;-81
2022/07/02 07:48:46;;;;;;;3.10;1.33;;;;;;;19.07;65.15;68888.75;5070135;28;20047;-84
2022/07/02 07:51:12;;;;;;;5.93;1.80;;;;;;;19.15;64.64;68898.47;5070244;28;20040;-83
2022/07/02 07:53:38;;;;;;;4.93;1.77;;;;;;;;;;5070750;28;20103;-84
2022/07/02 07:56:03;;;;;;;5.37;1.90;;;;;;;;;;5072300;28;20060;-83
2022/07/02 07:58:29;;;;;;;2.72;1.30;;;;;;;19.17;64.72;68905.59;5070355;28;20703;-83
2022/07/02 08:00:55;;;;;;;4.95;1.33;;;;;;;19.28;63.92;68912.75;5064068;28;20036;-83
2022/07/02 08:03:21;;;;;;;4.53;1.50;;;;;;;;;;5067624;28;20032;-83
2022/07/02 08:05:47;;;;;;;5.03;1.45;;;;;;;19.43;63.14;68929.31;5081552;28;20098;-83
2022/07/02 08:08:15;;;;;;;3.28;1.30;;;;;;;19.51;61.96;68937.91;5083794;28;20040;-83
2022/07/02 08:10:41;;;;;;;5.05;1.60;;;;;;;19.56;63.05;68949.59;5062367;28;20048;-84
2022/07/02 08:13:07;;;;;;;4.35;1.38;;;;;;;19.53;62.98;68940.75;5063968;28;20045;-82
2022/07/02 08:15:32;;;;;;;4.60;1.30;;;;;;;;;;5064658;28;20057;-84
2022/07/02 08:17:57;;;;;;;5.90;1.80;;;;;;;19.66;62.64;68954.50;5067425;28;20138;-83
2022/07/02 08:20:23;;;;;;;5.32;1.55;;;;;;;19.76;62.21;68965.91;5062575;28;20287;-83
2022/07/02 08:22:50;;;;;;;3.80;1.55;;;;;;;;;;5070594;28;20489;-83
2022/07/02 08:25:16;;;;;;;4.50;1.77;;;;;;;20.02;61.88;68995.63;5065010;28;20033;-84
2022/07/02 08:27:41;;;;;;;4.97;1.48;;;;;;;;;;5070419;28;20039;-84
2022/07/02 08:30:08;;;;;;;2.95;1.10;;;;;;;19.95;59.76;68992.47;5069405;28;20067;-83
2022/07/02 08:32:34;;;;;;;3.92;1.50;;;;;;;19.97;59.24;68989.34;5058518;28;20037;-83
2022/07/02 08:34:59;;;;;;;3.88;1.45;;;;;;;20.06;59.42;68999.63;5071144;28;20563;-83
2022/07/02 08:37:25;;;;;;;3.88;1.65;;;;;;;;;;5068702;28;20067;-84
2022/07/02 08:39:51;;;;;;;3.22;1.20;;;;;;;20.15;59.90;69007.22;5072833;28;20483;-85
2022/07/02 08:42:30;;;;;;;4.90;1.10;;;;;;;20.13;58.56;69007.06;5083095;28;20580;-82
2022/07/02 08:44:59;;;;;;;4.47;1.27;;;;;;;;;;5092638;28;20048;-84
2022/07/02 08:47:25;;;;;;;2.33;0.90;;;;;;;20.33;58.15;69035.34;5077921;28;20337;-85
2022/07/02 08:49:53;;;;;;;4.07;1.05;;;;;;;20.43;59.20;69041.38;5074603;28;20052;-86
2022/07/02 08:52:20;;;;;;;3.58;1.00;;;;;;;20.37;56.68;69033.91;5074198;28;20044;-85
2022/07/02 08:54:47;;;;;;;2.35;1.00;;;;;;;20.32;55.38;69028.22;5072922;28;20044;-84
2022/07/02 08:57:48;;;;;;;6.28;1.08;;;;;;;20.51;57.15;69049.94;5083485;28;20043;-84
2022/07/02 09:00:14;;;;;;;3.95;1.00;;;;;;;;;;5080143;28;20044;-83
2022/07/02 09:02:41;;;;;;;3.95;1.13;;;;;;;20.53;55.64;69048.97;5067326;28;20390;-85
2022/07/02 09:05:10;;;;;;;3.58;0.85;;;;;;;20.41;55.57;69039.06;5069111;28;20051;-83
2022/07/02 09:07:38;;;;;;;2.45;1.33;;;;;;;20.46;56.24;69042.09;5069545;28;20036;-87
2022/07/02 09:10:04;;;;;;;5.70;1.40;;;;;;;20.63;55.85;69063.09;5065317;28;20037;-85
2022/07/02 09:12:31;;;;;;;4.93;1.38;;;;;;;20.70;56.24;69071.13;5065736;28;20047;-83
2022/07/02 09:14:57;;;;;;;3.40;1.30;;;;;;;20.71;55.88;69069.53;5058786;28;20040;-84
2022/07/02 09:17:23;;;;;;;4.25;1.10;;;;;;;20.93;57.49;69094.16;5077361;28;20493;-84
2022/07/02 09:19:48;;;;;;;3.85;1.00;;;;;;;21.16;54.92;69119.88;5080543;28;20101;-83
2022/07/02 09:22:14;;;;;;;3.30;1.00;;;;;;;21.09;52.14;69112.47;5061951;28;20032;-83
2022/07/02 09:24:44;;;;;;;2.83;1.13;;;;;;;21.14;52.52;69120.28;5064960;28;20040;-83
2022/07/02 09:27:16;;;;;;;2.90;1.48;;;;;;;21.21;53.46;69125.59;5061198;28;20045;-84
2022/07/02 09:29:50;;;;;;;3.85;1.35;;;;;;;21.18;53.07;69124.88;5062357;28;20158;-83
2022/07/02 09:32:17;;;;;;;4.45;1.50;;;;;;;21.02;54.15;69101.16;5059397;28;20071;-87
2022/07/02 09:34:51;;;;;;;3.80;1.05;;;;;;;20.97;52.17;69098.72;5085927;28;20044;-86
2022/07/02 09:37:17;;;;;;;1.95;0.88;;;;;;;21.32;52.87;69146.31;5063617;28;20044;-81
2022/07/02 09:39:44;;;;;;;3.85;1.13;;;;;;;21.42;50.87;69148.50;5061034;28;20051;-85
2022/07/02 09:42:33;;;;;;;4.20;1.48;;;;;;;21.62;49.79;69171.41;5066704;28;20032;-82
2022/07/02 09:45:00;;;;;;;2.45;1.10;;;;;;;21.72;47.97;69185.56;5032955;28;20095;-82
2022/07/02 09:47:37;;;;;;;4.28;1.10;;;;;;;21.96;50.71;69209.75;5059676;28;20389;-85
2022/07/02 09:50:12;;;;;;;3.22;1.08;;;;;;;22.01;48.68;69217.59;5064636;28;20044;-84
2022/07/02 09:52:50;;;;;;;5.13;1.17;;;;;;;21.91;48.37;69203.44;5067218;28;22398;-82
2022/07/02 09:55:32;;;;;;;4.35;1.20;;;;;;;21.98;48.07;69214.75;5060743;28;20041;-84
2022/07/02 09:58:02;;;;;;;3.22;1.20;;;;;;;21.97;47.29;69213.03;5078404;28;20057;-86
2022/07/02 10:00:30;;;;;;;5.63;1.70;;;;;;;21.83;48.64;69192.72;5059739;28;20449;-84
2022/07/02 10:02:57;;;;;;;1.83;0.90;;;;;;;21.60;49.11;69172.38;5063125;28;20040;-84
2022/07/02 10:05:33;;;;;;;3.72;1.38;;;;;;;21.79;49.31;69190.84;5065399;28;20040;-84
2022/07/02 10:08:00;;;;;;;4.13;1.20;;;;;;;21.85;47.85;69200.44;5063807;28;20040;-85
2022/07/02 10:10:50;;;;;;;3.40;1.20;;;;;;;22.13;49.56;69231.34;5068744;28;20040;-84
2022/07/02 10:13:16;;;;;;;4.40;1.17;;;;;;;;;;5068901;28;20060;-86
2022/07/02 10:15:50;;;;;;;3.22;1.10;;;;;;;22.54;48.20;69277.16;5058884;28;20056;-84
2022/07/02 10:18:17;;;;;;;3.35;1.20;;;;;;;22.75;46.46;69300.63;5066377;28;20425;-84
2022/07/02 10:20:43;;;;;;;2.72;1.10;;;;;;;22.55;45.22;69275.59;5061149;28;20066;-83
2022/07/02 10:23:08;;;;;;;4.00;1.00;;;;;;;22.61;46.09;69279.75;5066711;28;20541;-84
2022/07/02 10:25:34;;;;;;;5.80;1.40;;;;;;;22.73;45.86;69298.94;5067400;28;20063;-83
2022/07/02 10:28:00;;;;;;;3.28;1.10;;;;;;;22.84;45.08;69307.66;5064466;28;20036;-84
2022/07/02 10:30:34;;;;;;;2.33;0.80;;;;;;;22.79;45.39;69304.63;5059043;28;20032;-84
2022/07/02 10:33:19;;;;;;;2.33;1.10;;;;;;;22.76;45.72;69299.09;5050866;28;20075;-84
2022/07/02 10:35:48;;;;;;;2.97;0.98;;;;;;;22.67;46.37;69286.03;5057119;28;20468;-85
2022/07/02 10:38:13;;;;;;;;;;;;;;;;;;5057175;28;20037;-84
2022/07/02 10:40:50;;;;;;;4.57;0.93;;;;;;;22.26;44.28;69243.53;5074846;28;19913;-83
2022/07/02 10:43:17;;;;;;;2.53;0.82;;;;;;;22.30;45.65;69245.41;5069404;28;20037;-83
2022/07/02 10:45:43;;;;;;;1.70;0.90;;;;;;;22.41;45.86;69260.16;5066764;28;20491;-85
2022/07/02 10:48:11;;;;;;;2.90;1.00;;;;;;;22.70;45.46;69295.50;5068971;28;20043;-86
2022/07/02 10:50:39;;;;;;;2.92;0.95;;;;;;;22.53;44.36;69276.59;5065761;28;20059;-85
2022/07/02 10:53:15;;;;;;;2.78;0.90;;;;;;;22.37;44.71;69257.69;5063442;28;20552;-86
2022/07/02 10:55:55;;;;;;;2.78;0.80;;;;;;;22.23;44.62;69242.81;5064095;28;20138;-85
2022/07/02 10:58:24;;;;;;;4.78;1.13;;;;;;;22.09;43.94;69232.75;5072706;28;20424;-86
2022/07/02 11:00:49;;;;;;;4.38;1.17;;;;;;;;;;5064751;28;20044;-86
2022/07/02 11:03:26;;;;;;;4.30;1.08;;;;;;;22.23;43.43;69237.38;5067445;28;20119;-85
2022/07/02 11:06:03;;;;;;;2.65;0.80;;;;;;;22.34;45.89;69254.84;5060692;28;20041;-84
2022/07/02 11:08:47;;;;;;;2.95;0.90;;;;;;;22.66;45.59;69288.19;5066412;28;20482;-85
2022/07/02 11:11:40;;;;;;;4.78;0.90;;;;;;;22.76;44.35;69301.78;5067811;28;20097;-85
2022/07/02 11:14:17;;;;;;;3.08;1.10;;;;;;;22.75;44.80;69295.78;5062876;28;20040;-85
2022/07/02 11:16:48;;;;;;;2.25;0.70;;;;;;;22.73;43.65;69298.34;5066144;28;20414;-85
2022/07/02 11:19:25;;;;;;;3.38;0.73;;;;;;;22.72;43.35;69295.06;5066143;28;20051;-85
2022/07/02 11:21:53;;;;;;;3.13;0.70;;;;;;;22.93;44.88;69318.56;5075737;28;20062;-85
2022/07/02 11:24:19;;;;;;;;;;;;;;;;;;5066260;28;20131;-86
2022/07/02 11:26:45;;;;;;;1.95;0.80;;;;;;;23.08;43.10;69335.19;5066411;28;19999;-85
2022/07/02 11:29:11;;;;;;;3.10;0.75;;;;;;;23.28;41.74;69360.25;5067403;28;20036;-84
2022/07/02 11:31:38;;;;;;;2.97;1.00;;;;;;;;;;5064666;28;20414;-83
2022/07/02 11:34:03;;;;;;;2.85;0.70;;;;;;;23.49;42.31;69383.16;5065778;28;20068;-84
2022/07/02 11:36:29;;;;;;;2.72;0.80;;;;;;;23.52;41.47;69381.72;5068642;28;20055;-83
2022/07/02 11:38:55;;;;;;;1.50;0.50;;;;;;;23.55;40.41;69390.59;5064754;28;20048;-84
2022/07/02 11:41:34;;;;;;;1.50;0.52;;;;;;;23.53;40.03;69388.28;5067876;28;20158;-83
2022/07/02 11:44:01;;;;;;;2.63;0.60;;;;;;;23.72;41.49;69409.53;5077281;28;20044;-83
2022/07/02 11:46:28;;;;;;;1.95;0.70;;;;;;;23.84;39.35;69417.28;5064678;28;20041;-84
2022/07/02 11:48:56;;;;;;;2.50;0.60;;;;;;;23.57;39.09;69392.91;5065040;28;20429;-83
2022/07/02 11:51:22;;;;;;;3.10;0.60;;;;;;;23.76;40.17;69408.09;5065986;28;20052;-84
2022/07/02 11:54:01;;;;;;;2.75;0.57;;;;;;;24.02;39.82;69437.91;5064303;28;20048;-84
2022/07/02 11:56:28;;;;;;;1.42;0.50;;;;;;;24.11;39.31;69453.09;5062965;28;20052;-83
2022/07/02 11:58:54;;;;;;;5.22;1.17;;;;;;;;;;5064522;28;20135;-83
2022/07/02 12:01:27;;;;;;;3.78;0.50;;;;;;;24.08;39.39;69447.50;5065792;28;20128;-83
2022/07/02 12:03:56;;;;;;;1.90;0.63;;;;;;;24.17;38.10;69453.94;5065316;28;20098;-83
2022/07/02 12:06:25;;;;;;;5.32;0.80;;;;;;;24.27;41.08;69468.72;5064681;28;20075;-83
2022/07/02 12:08:55;;;;;;;2.53;0.82;;;;;;;24.31;39.04;69475.44;5065643;28;20044;-83
2022/07/02 12:11:22;;;;;;;1.38;0.50;;;;;;;24.47;39.31;69488.38;5065083;28;20040;-83